Time;durP1;ratioP1;P1;durP2;ratioP2;P2;SDS_P1;SDS_P2;PMS_P1;PMS_P2;Temp;Humidity;BMP_temperature;BMP_pressure;BME280_temperature;BME280_humidity;BME280_pressure;Samples;Min_cycle;Max_cycle;Signal;HPM_P1;HPM_P2
2022/02/13 00:01:20;;;;;;;;;;;16.00;32.90;;;;;;8334258;28;19917;-53
2022/02/13 00:05:21;;;;;;;;;;;16.00;32.80;;;;;;8334244;28;19924;-53
2022/02/13 00:09:21;;;;;;;;;;;16.00;32.80;;;;;;8334443;28;20266;-52
2022/02/13 00:13:22;;;;;;;;;;;16.00;32.80;;;;;;8333966;28;19913;-52
2022/02/13 00:17:23;;;;;;;;;;;16.00;32.80;;;;;;8334257;28;19975;-53
2022/02/13 00:21:23;;;;;;;;;;;16.00;32.80;;;;;;8332927;28;20047;-55
2022/02/13 00:25:24;;;;;;;;;;;16.00;32.80;;;;;;8333496;28;19932;-54
2022/02/13 00:29:24;;;;;;;;;;;16.00;32.80;;;;;;8333699;28;19948;-54
2022/02/13 00:33:25;;;;;;;;;;;16.00;32.80;;;;;;8333600;28;20004;-54
2022/02/13 00:37:25;;;;;;;;;;;16.00;32.80;;;;;;8332986;28;19925;-54
2022/02/13 00:41:26;;;;;;;;;;;16.00;32.80;;;;;;8333774;28;19928;-54
2022/02/13 00:45:27;;;;;;;;;;;15.90;32.80;;;;;;8331941;28;19921;-55
2022/02/13 00:49:27;;;;;;;;;;;15.90;32.70;;;;;;8332640;28;19920;-54
2022/02/13 00:53:28;;;;;;;;;;;15.90;32.70;;;;;;8333120;28;19921;-54
2022/02/13 00:57:28;;;;;;;;;;;15.90;32.70;;;;;;8332920;28;20028;-54
2022/02/13 01:01:29;;;;;;;;;;;15.90;32.70;;;;;;8332574;28;19917;-53
2022/02/13 01:05:29;;;;;;;;;;;15.90;33.30;;;;;;8332913;28;19917;-55
2022/02/13 01:09:30;;;;;;;;;;;15.90;32.80;;;;;;8332468;28;19924;-52
2022/02/13 01:13:31;;;;;;;;;;;15.90;32.70;;;;;;8331968;28;19949;-52
2022/02/13 01:17:31;;;;;;;;;;;15.80;32.70;;;;;;8331963;28;19960;-52
2022/02/13 01:21:32;;;;;;;;;;;15.90;32.70;;;;;;8332685;28;19917;-54
2022/02/13 01:25:32;;;;;;;;;;;15.80;32.70;;;;;;8331679;28;20383;-53
2022/02/13 01:29:34;;;;;;;;;;;15.80;32.70;;;;;;8331804;28;19917;-54
2022/02/13 01:33:35;;;;;;;;;;;15.80;32.70;;;;;;8331706;28;19924;-54
2022/02/13 01:37:35;;;;;;;;;;;15.80;32.70;;;;;;8331248;28;19921;-52
2022/02/13 01:41:36;;;;;;;;;;;15.90;32.80;;;;;;8331740;28;19913;-56
2022/02/13 01:45:36;;;;;;;;;;;15.80;32.80;;;;;;8331402;28;19928;-50
2022/02/13 01:49:37;;;;;;;;;;;15.80;32.70;;;;;;8330850;28;19924;-53
2022/02/13 01:53:37;;;;;;;;;;;15.80;32.80;;;;;;8331144;28;19928;-53
2022/02/13 01:57:38;;;;;;;;;;;15.80;32.70;;;;;;8331043;28;20388;-51
2022/02/13 02:01:38;;;;;;;;;;;15.80;32.70;;;;;;8323049;28;19929;-51
2022/02/13 02:05:42;;;;;;;;;;;15.80;32.80;;;;;;8323930;28;19921;-54
2022/02/13 02:09:46;;;;;;;;;;;15.80;32.70;;;;;;8330752;28;19921;-54
2022/02/13 02:13:46;;;;;;;;;;;15.80;32.70;;;;;;8330053;28;20298;-51
2022/02/13 02:17:47;;;;;;;;;;;15.80;32.70;;;;;;8330711;28;19952;-53
2022/02/13 02:21:47;;;;;;;;;;;15.80;32.70;;;;;;8330861;28;19974;-50
2022/02/13 02:25:48;;;;;;;;;;;15.80;32.70;;;;;;8328420;28;19921;-50
2022/02/13 02:29:48;;;;;;;;;;;15.80;32.70;;;;;;8329583;28;19921;-55
2022/02/13 02:33:49;;;;;;;;;;;15.80;32.70;;;;;;8330201;28;20381;-53
2022/02/13 02:37:49;;;;;;;;;;;15.80;32.70;;;;;;8329758;28;20339;-52
2022/02/13 02:41:50;;;;;;;;;;;15.80;32.70;;;;;;8330317;28;19944;-52
2022/02/13 02:45:50;;;;;;;;;;;15.80;32.70;;;;;;8329911;28;20389;-52
2022/02/13 02:49:51;;;;;;;;;;;15.80;32.70;;;;;;8329507;28;20365;-53
2022/02/13 02:53:51;;;;;;;;;;;15.80;32.70;;;;;;8329988;28;20027;-50
2022/02/13 02:57:52;;;;;;;;;;;15.70;32.60;;;;;;8330180;28;20263;-53
2022/02/13 03:01:52;;;;;;;;;;;15.70;32.70;;;;;;8329368;28;19924;-51
2022/02/13 03:05:53;;;;;;;;;;;15.70;32.60;;;;;;8311995;28;20361;-51
2022/02/13 03:09:53;;;;;;;;;;;15.70;32.60;;;;;;8330889;28;20310;-51
2022/02/13 03:13:54;;;;;;;;;;;15.70;32.70;;;;;;8329449;28;19917;-52
2022/02/13 03:17:54;;;;;;;;;;;15.70;32.70;;;;;;8328625;28;19952;-54
2022/02/13 03:21:55;;;;;;;;;;;15.70;32.60;;;;;;8329463;28;19917;-55
2022/02/13 03:25:55;;;;;;;;;;;15.70;32.70;;;;;;8328982;28;19921;-54
2022/02/13 03:29:56;;;;;;;;;;;15.70;32.70;;;;;;8329328;28;20023;-54
2022/02/13 03:33:56;;;;;;;;;;;15.70;32.70;;;;;;8329243;28;19928;-53
2022/02/13 03:37:57;;;;;;;;;;;15.70;32.70;;;;;;8329813;28;19940;-52
2022/02/13 03:41:57;;;;;;;;;;;15.70;32.70;;;;;;8335304;28;19924;-50
2022/02/13 03:45:58;;;;;;;;;;;15.70;32.70;;;;;;8335193;28;19956;-49
2022/02/13 03:49:58;;;;;;;;;;;15.70;32.70;;;;;;8334539;28;19923;-54
2022/02/13 03:53:58;;;;;;;;;;;15.60;32.60;;;;;;8334783;28;19921;-52
2022/02/13 03:57:59;;;;;;;;;;;15.60;32.60;;;;;;8335003;28;19945;-53
2022/02/13 04:02:00;;;;;;;;;;;15.60;32.70;;;;;;8334369;28;19924;-49
2022/02/13 04:06:01;;;;;;;;;;;15.60;32.60;;;;;;8334908;28;19924;-53
2022/02/13 04:10:01;;;;;;;;;;;15.60;32.60;;;;;;8334651;28;20385;-54
2022/02/13 04:14:02;;;;;;;;;;;15.60;32.60;;;;;;8333887;28;19947;-51
2022/02/13 04:18:09;;;;;;;;;;;15.60;32.60;;;;;;8334292;28;20389;-51
2022/02/13 04:22:10;;;;;;;;;;;15.60;32.60;;;;;;8334240;28;20314;-53
2022/02/13 04:26:10;;;;;;;;;;;15.60;32.70;;;;;;8333417;28;19917;-53
2022/02/13 04:30:11;;;;;;;;;;;15.60;32.70;;;;;;8333732;28;19924;-53
2022/02/13 04:34:12;;;;;;;;;;;15.60;32.60;;;;;;8333594;28;19917;-50
2022/02/13 04:38:13;;;;;;;;;;;15.60;32.60;;;;;;8333309;28;19921;-51
2022/02/13 04:42:13;;;;;;;;;;;15.60;32.60;;;;;;8333459;28;20025;-53
2022/02/13 04:46:14;;;;;;;;;;;15.60;32.60;;;;;;8332189;28;19917;-50
2022/02/13 04:50:20;;;;;;;;;;;15.60;32.60;;;;;;8330025;28;19924;-50
2022/02/13 04:54:21;;;;;;;;;;;15.60;32.60;;;;;;8333283;28;20424;-50
2022/02/13 04:58:21;;;;;;;;;;;15.50;32.60;;;;;;8332574;28;20008;-53
2022/02/13 05:02:22;;;;;;;;;;;15.60;32.60;;;;;;8333183;28;19917;-53
2022/02/13 05:06:22;;;;;;;;;;;15.50;32.60;;;;;;8332651;28;19963;-54
2022/02/13 05:10:22;;;;;;;;;;;15.50;32.50;;;;;;8331201;28;19925;-52
2022/02/13 05:14:24;;;;;;;;;;;15.50;32.50;;;;;;8332713;28;20000;-53
2022/02/13 05:18:24;;;;;;;;;;;15.50;32.60;;;;;;8332631;28;20412;-51
2022/02/13 05:22:25;;;;;;;;;;;15.50;32.60;;;;;;8331915;28;19924;-52
2022/02/13 05:26:25;;;;;;;;;;;15.50;32.50;;;;;;8331963;28;19917;-53
2022/02/13 05:30:26;;;;;;;;;;;15.50;32.50;;;;;;8332008;28;19917;-53
2022/02/13 05:34:26;;;;;;;;;;;15.50;32.60;;;;;;8331527;28;19917;-52
2022/02/13 05:38:26;;;;;;;;;;;15.50;32.60;;;;;;8331663;28;19921;-53
2022/02/13 05:42:27;;;;;;;;;;;15.50;32.60;;;;;;8331703;28;19943;-50
2022/02/13 05:46:29;;;;;;;;;;;15.50;32.50;;;;;;8331159;28;19917;-53
2022/02/13 05:50:30;;;;;;;;;;;15.50;32.60;;;;;;8331161;28;19949;-50
2022/02/13 05:54:30;;;;;;;;;;;15.50;32.50;;;;;;8331139;28;19925;-52
2022/02/13 05:58:35;;;;;;;;;;;15.50;32.50;;;;;;8330991;28;20480;-51
2022/02/13 06:02:36;;;;;;;;;;;15.50;32.60;;;;;;8331562;28;19987;-52
2022/02/13 06:06:36;;;;;;;;;;;15.50;32.60;;;;;;8330785;28;19921;-50
2022/02/13 06:10:37;;;;;;;;;;;15.40;32.50;;;;;;8330133;28;21312;-52
2022/02/13 06:14:37;;;;;;;;;;;15.40;32.50;;;;;;8330950;28;20381;-54
2022/02/13 06:18:38;;;;;;;;;;;15.40;32.60;;;;;;8329851;28;20059;-49
2022/02/13 06:22:39;;;;;;;;;;;15.40;32.50;;;;;;8330106;28;19921;-53
2022/02/13 06:26:39;;;;;;;;;;;15.40;32.50;;;;;;8330305;28;19992;-53
2022/02/13 06:30:40;;;;;;;;;;;15.40;32.50;;;;;;8330144;28;19917;-52
2022/02/13 06:34:40;;;;;;;;;;;15.40;32.60;;;;;;8329766;28;19925;-50
2022/02/13 06:38:41;;;;;;;;;;;15.40;32.60;;;;;;8330479;28;19921;-50
2022/02/13 06:42:41;;;;;;;;;;;15.40;33.10;;;;;;8330322;28;20000;-50
2022/02/13 06:46:42;;;;;;;;;;;15.40;32.60;;;;;;8329480;28;19921;-50
2022/02/13 06:50:42;;;;;;;;;;;15.40;32.50;;;;;;8330152;28;20350;-49
2022/02/13 06:54:43;;;;;;;;;;;15.30;32.50;;;;;;8330148;28;19921;-53
2022/02/13 06:58:43;;;;;;;;;;;15.30;32.50;;;;;;8329466;28;20344;-51
2022/02/13 07:02:44;;;;;;;;;;;15.30;32.50;;;;;;8329829;28;20366;-52
2022/02/13 07:06:45;;;;;;;;;;;15.30;32.50;;;;;;8329729;28;19913;-52
2022/02/13 07:10:45;;;;;;;;;;;15.30;32.50;;;;;;8329282;28;20034;-53
2022/02/13 07:14:46;;;;;;;;;;;15.30;32.50;;;;;;8333313;28;19921;-52
2022/02/13 07:18:47;;;;;;;;;;;15.30;32.50;;;;;;8336191;28;20504;-50
2022/02/13 07:22:47;;;;;;;;;;;15.30;32.40;;;;;;8335470;28;19944;-49
2022/02/13 07:26:48;;;;;;;;;;;15.30;32.50;;;;;;8335630;28;20067;-49
2022/02/13 07:30:48;;;;;;;;;;;15.30;32.50;;;;;;8335628;28;19917;-49
2022/02/13 07:34:49;;;;;;;;;;;15.30;32.50;;;;;;8335105;28;19971;-51
2022/02/13 07:38:49;;;;;;;;;;;15.30;32.50;;;;;;8335589;28;19939;-54
2022/02/13 07:42:51;;;;;;;;;;;15.30;32.50;;;;;;8335393;28;19918;-53
2022/02/13 07:46:51;;;;;;;;;;;15.30;32.40;;;;;;8334846;28;20449;-53
2022/02/13 07:50:52;;;;;;;;;;;15.40;32.50;;;;;;8335155;28;19917;-49
2022/02/13 07:54:52;;;;;;;;;;;15.40;32.40;;;;;;8334958;28;19921;-52
2022/02/13 07:58:53;;;;;;;;;;;15.40;32.30;;;;;;8334476;28;19931;-51
2022/02/13 08:02:53;;;;;;;;;;;15.40;32.30;;;;;;8334989;28;19924;-53
2022/02/13 08:06:54;;;;;;;;;;;15.40;32.30;;;;;;8325949;28;19920;-52
2022/02/13 08:10:54;;;;;;;;;;;15.40;32.30;;;;;;8308860;28;20324;-51
2022/02/13 08:14:55;;;;;;;;;;;15.40;32.30;;;;;;8334760;28;20247;-53
2022/02/13 08:18:55;;;;;;;;;;;15.40;32.20;;;;;;8334174;28;19979;-51
2022/02/13 08:22:56;;;;;;;;;;;15.40;32.30;;;;;;8333599;28;19971;-53
2022/02/13 08:26:56;;;;;;;;;;;15.40;32.30;;;;;;8333626;28;20350;-52
2022/02/13 08:30:57;;;;;;;;;;;15.40;32.30;;;;;;8333653;28;19928;-52
2022/02/13 08:34:58;;;;;;;;;;;15.40;32.30;;;;;;8333451;28;19921;-51
2022/02/13 08:38:58;;;;;;;;;;;15.40;32.40;;;;;;8333564;28;19932;-53
2022/02/13 08:42:59;;;;;;;;;;;15.40;32.40;;;;;;8333797;28;19917;-53
2022/02/13 08:47:00;;;;;;;;;;;15.40;32.50;;;;;;8332941;28;19918;-52
2022/02/13 08:51:00;;;;;;;;;;;15.40;32.60;;;;;;8333022;28;19920;-52
2022/02/13 08:55:01;;;;;;;;;;;15.40;32.50;;;;;;8333128;28;19928;-52
2022/02/13 08:59:01;;;;;;;;;;;15.40;32.40;;;;;;8332176;28;19925;-53
2022/02/13 09:03:02;;;;;;;;;;;15.40;32.50;;;;;;8332675;28;19917;-52
2022/02/13 09:07:02;;;;;;;;;;;15.40;32.50;;;;;;8332622;28;19913;-52
2022/02/13 09:11:03;;;;;;;;;;;15.40;32.50;;;;;;8331882;28;19917;-53
2022/02/13 09:15:07;;;;;;;;;;;15.40;32.50;;;;;;8332480;28;19913;-49
2022/02/13 09:19:07;;;;;;;;;;;15.40;32.50;;;;;;8332129;28;19995;-53
2022/02/13 09:23:09;;;;;;;;;;;15.40;32.50;;;;;;8331515;28;19921;-51
2022/02/13 09:27:10;;;;;;;;;;;15.40;32.50;;;;;;8332559;28;19917;-51
2022/02/13 09:31:10;;;;;;;;;;;15.40;32.50;;;;;;8331896;28;19923;-54
2022/02/13 09:35:11;;;;;;;;;;;15.40;32.50;;;;;;8331427;28;19925;-49
2022/02/13 09:39:11;;;;;;;;;;;15.40;32.50;;;;;;8331548;28;20362;-52
2022/02/13 09:43:12;;;;;;;;;;;15.50;32.60;;;;;;8331584;28;19917;-52
2022/02/13 09:47:13;;;;;;;;;;;15.40;32.50;;;;;;8330895;28;19917;-52
2022/02/13 09:51:13;;;;;;;;;;;15.50;32.60;;;;;;8331193;28;19913;-49
2022/02/13 09:55:14;;;;;;;;;;;15.50;32.50;;;;;;8330901;28;19991;-53
2022/02/13 09:59:14;;;;;;;;;;;15.50;32.50;;;;;;8331301;28;20374;-51
2022/02/13 10:03:19;;;;;;;;;;;15.50;32.50;;;;;;8329487;28;19963;-50
2022/02/13 10:07:21;;;;;;;;;;;15.50;32.50;;;;;;8330607;28;19980;-53
2022/02/13 10:11:34;;;;;;;;;;;15.50;32.50;;;;;;8330940;28;20234;-51
2022/02/13 10:15:35;;;;;;;;;;;15.50;32.60;;;;;;8330861;28;19917;-55
2022/02/13 10:19:35;;;;;;;;;;;15.60;32.60;;;;;;8329829;28;20290;-54
2022/02/13 10:23:36;;;;;;;;;;;15.60;32.60;;;;;;8330533;28;20343;-54
2022/02/13 10:27:44;;;;;;;;;;;15.60;32.60;;;;;;8330449;28;19917;-51
2022/02/13 10:31:45;;;;;;;;;;;15.60;32.60;;;;;;8329572;28;19921;-53
2022/02/13 10:36:01;;;;;;;;;;;15.60;32.60;;;;;;8330367;28;19913;-53
2022/02/13 10:40:03;;;;;;;;;;;15.60;32.60;;;;;;8330120;28;20393;-52
2022/02/13 10:44:06;;;;;;;;;;;15.70;32.60;;;;;;8329302;28;19917;-53
2022/02/13 10:48:08;;;;;;;;;;;15.70;32.60;;;;;;8331222;28;19964;-52
2022/02/13 10:52:08;;;;;;;;;;;15.60;32.60;;;;;;8336867;28;19956;-53
2022/02/13 10:56:09;;;;;;;;;;;15.70;32.60;;;;;;8335975;28;20366;-50
2022/02/13 11:00:13;;;;;;;;;;;15.70;32.60;;;;;;8336857;28;19917;-53
2022/02/13 11:04:14;;;;;;;;;;;15.70;32.60;;;;;;8324759;28;20286;-54
2022/02/13 11:08:17;;;;;;;;;;;15.70;32.50;;;;;;8320796;28;19925;-51
2022/02/13 11:12:18;;;;;;;;;;;15.70;32.60;;;;;;8336622;28;20386;-54
2022/02/13 11:16:28;;;;;;;;;;;15.70;32.60;;;;;;8335635;28;20290;-51
2022/02/13 11:20:30;;;;;;;;;;;15.70;32.50;;;;;;8336282;28;19913;-54
2022/02/13 11:24:37;;;;;;;;;;;15.80;32.60;;;;;;8336060;28;19932;-54
2022/02/13 11:28:41;;;;;;;;;;;15.70;32.50;;;;;;8335165;28;19925;-54
2022/02/13 11:32:45;;;;;;;;;;;15.80;32.60;;;;;;8335740;28;19973;-54
2022/02/13 11:36:46;;;;;;;;;;;15.80;32.60;;;;;;8335350;28;19925;-51
2022/02/13 11:40:47;;;;;;;;;;;15.80;32.60;;;;;;8335327;28;20289;-54
2022/02/13 11:44:48;;;;;;;;;;;15.80;32.60;;;;;;8335573;28;19925;-51
2022/02/13 11:48:55;;;;;;;;;;;15.80;32.60;;;;;;8335492;28;20007;-52
2022/02/13 11:52:56;;;;;;;;;;;15.80;32.60;;;;;;8334844;28;19944;-52
2022/02/13 11:57:06;;;;;;;;;;;15.80;32.60;;;;;;8335181;28;19921;-51
2022/02/13 12:01:27;;;;;;;;;;;15.90;32.60;;;;;;8334882;28;19917;-53
2022/02/13 12:05:27;;;;;;;;;;;15.80;32.60;;;;;;8334719;28;20321;-54
2022/02/13 12:09:29;;;;;;;;;;;15.80;32.50;;;;;;8334695;28;19999;-52
2022/02/13 12:13:29;;;;;;;;;;;15.90;32.60;;;;;;8334086;28;19913;-52
2022/02/13 12:17:30;;;;;;;;;;;15.90;32.60;;;;;;8334601;28;19928;-54
2022/02/13 12:21:30;;;;;;;;;;;15.90;32.60;;;;;;8334598;28;20008;-53
2022/02/13 12:25:32;;;;;;;;;;;15.90;32.60;;;;;;8333555;28;19918;-54
2022/02/13 12:29:32;;;;;;;;;;;15.90;32.60;;;;;;8334254;28;19949;-53
2022/02/13 12:33:39;;;;;;;;;;;15.90;32.60;;;;;;8333665;28;19914;-53
2022/02/13 12:37:41;;;;;;;;;;;15.90;32.60;;;;;;8333378;28;19925;-54
2022/02/13 12:41:49;;;;;;;;;;;15.90;32.60;;;;;;8334052;28;19999;-51
2022/02/13 12:45:51;;;;;;;;;;;16.00;32.70;;;;;;8333656;28;20358;-53
2022/02/13 12:49:51;;;;;;;;;;;16.00;32.60;;;;;;8332910;28;20767;-54
2022/02/13 12:53:52;;;;;;;;;;;16.00;32.60;;;;;;8333243;28;19979;-53
2022/02/13 12:57:54;;;;;;;;;;;16.00;32.70;;;;;;8333152;28;19921;-54
2022/02/13 13:01:56;;;;;;;;;;;16.00;32.60;;;;;;8333050;28;19917;-51
2022/02/13 13:05:57;;;;;;;;;;;16.00;32.60;;;;;;8333104;28;20259;-53
2022/02/13 13:10:17;;;;;;;;;;;16.00;33.20;;;;;;8332630;28;19925;-52
2022/02/13 13:14:20;;;;;;;;;;;16.00;32.60;;;;;;8331743;28;19921;-53
2022/02/13 13:18:37;;;;;;;;;;;16.00;32.70;;;;;;8332317;28;20390;-52
2022/02/13 13:22:38;;;;;;;;;;;16.00;32.60;;;;;;8332068;28;19921;-53
2022/02/13 13:26:38;;;;;;;;;;;16.10;32.70;;;;;;8332235;28;19913;-53
2022/02/13 13:30:39;;;;;;;;;;;16.10;32.70;;;;;;8330737;28;19917;-53
2022/02/13 13:34:46;;;;;;;;;;;16.10;32.70;;;;;;8331407;28;20025;-53
2022/02/13 13:38:47;;;;;;;;;;;16.10;32.70;;;;;;8332047;28;19929;-51
2022/02/13 13:42:48;;;;;;;;;;;16.00;32.70;;;;;;8331993;28;19968;-50
2022/02/13 13:46:49;;;;;;;;;;;16.10;32.70;;;;;;8331125;28;19956;-54
2022/02/13 13:50:51;;;;;;;;;;;16.10;32.70;;;;;;8341271;28;20370;-50
2022/02/13 13:54:51;;;;;;;;;;;16.10;32.70;;;;;;8342813;28;20055;-51
2022/02/13 13:58:52;;;;;;;;;;;16.10;32.60;;;;;;8330657;28;20291;-51
2022/02/13 14:02:55;;;;;;;;;;;16.10;32.70;;;;;;8330988;28;19992;-54
2022/02/13 14:07:02;;;;;;;;;;;16.10;32.60;;;;;;8313115;28;21606;-54
2022/02/13 14:11:03;;;;;;;;;;;16.10;32.60;;;;;;8328450;28;20055;-54
2022/02/13 14:15:04;;;;;;;;;;;16.10;32.60;;;;;;8331093;28;19917;-52
2022/02/13 14:19:05;;;;;;;;;;;16.20;32.60;;;;;;8330722;28;19921;-53
2022/02/13 14:23:05;;;;;;;;;;;16.20;32.60;;;;;;8330185;28;19917;-53
2022/02/13 14:27:06;;;;;;;;;;;16.20;32.70;;;;;;8330759;28;20004;-54
2022/02/13 14:31:06;;;;;;;;;;;16.20;32.60;;;;;;8330522;28;19979;-51
2022/02/13 14:35:07;;;;;;;;;;;16.20;32.70;;;;;;8329868;28;19917;-55
2022/02/13 14:39:08;;;;;;;;;;;16.20;32.70;;;;;;8330032;28;19933;-53
2022/02/13 14:43:08;;;;;;;;;;;16.20;32.60;;;;;;8330180;28;20336;-54
2022/02/13 14:47:09;;;;;;;;;;;16.20;32.60;;;;;;8329839;28;19920;-54
2022/02/13 14:51:09;;;;;;;;;;;16.20;32.60;;;;;;8329926;28;19944;-54
2022/02/13 14:55:10;;;;;;;;;;;16.20;32.60;;;;;;8330076;28;19921;-51
2022/02/13 14:59:15;;;;;;;;;;;16.20;32.60;;;;;;8329286;28;19925;-52
2022/02/13 15:03:15;;;;;;;;;;;16.20;32.60;;;;;;8329851;28;19917;-54
2022/02/13 15:07:15;;;;;;;;;;;16.20;32.60;;;;;;8329490;28;19913;-51
2022/02/13 15:11:17;;;;;;;;;;;16.20;32.60;;;;;;8329815;28;19957;-52
2022/02/13 15:15:17;;;;;;;;;;;16.20;32.60;;;;;;8328500;28;20000;-54
2022/02/13 15:19:18;;;;;;;;;;;16.20;32.60;;;;;;8329160;28;19929;-51
2022/02/13 15:23:19;;;;;;;;;;;16.20;32.60;;;;;;8329538;28;20357;-53
2022/02/13 15:27:19;;;;;;;;;;;16.20;32.60;;;;;;8329903;28;19929;-52
2022/02/13 15:31:20;;;;;;;;;;;16.30;32.60;;;;;;8328847;28;19921;-50
2022/02/13 15:35:21;;;;;;;;;;;16.30;32.70;;;;;;8331852;28;19917;-51
2022/02/13 15:39:21;;;;;;;;;;;16.20;32.60;;;;;;8335456;28;19931;-52
2022/02/13 15:43:22;;;;;;;;;;;16.20;32.60;;;;;;8334947;28;19917;-54
2022/02/13 15:47:23;;;;;;;;;;;16.30;32.60;;;;;;8335811;28;19913;-52
2022/02/13 15:51:24;;;;;;;;;;;16.20;32.60;;;;;;8335129;28;19951;-53
2022/02/13 15:55:24;;;;;;;;;;;16.30;32.60;;;;;;8334531;28;20016;-51
2022/02/13 15:59:25;;;;;;;;;;;16.30;32.60;;;;;;8334663;28;19925;-52
2022/02/13 16:03:26;;;;;;;;;;;16.30;32.60;;;;;;8334736;28;19924;-51
2022/02/13 16:07:27;;;;;;;;;;;16.30;32.60;;;;;;8334519;28;19913;-52
2022/02/13 16:11:27;;;;;;;;;;;16.30;32.60;;;;;;8334509;28;20297;-54
2022/02/13 16:15:29;;;;;;;;;;;16.30;32.60;;;;;;8334430;28;19932;-53
2022/02/13 16:19:30;;;;;;;;;;;16.30;32.60;;;;;;8333800;28;19925;-55
2022/02/13 16:27:51;;;;;;;;;;;16.20;32.60;;;;;;8334456;28;20013;-53
2022/02/13 16:31:52;;;;;;;;;;;16.20;32.60;;;;;;8333484;28;19917;-54
2022/02/13 16:35:52;;;;;;;;;;;16.20;32.60;;;;;;8334021;28;20313;-54
2022/02/13 16:39:53;;;;;;;;;;;16.20;32.60;;;;;;8333569;28;19925;-54
2022/02/13 16:43:54;;;;;;;;;;;16.20;32.60;;;;;;8333094;28;19917;-54
2022/02/13 16:47:55;;;;;;;;;;;16.20;32.60;;;;;;8332885;28;19914;-49
2022/02/13 16:51:55;;;;;;;;;;;16.20;32.60;;;;;;8333515;28;19921;-53
2022/02/13 16:55:56;;;;;;;;;;;16.20;32.60;;;;;;8332678;28;20444;-53
2022/02/13 16:59:56;;;;;;;;;;;16.20;32.70;;;;;;8332915;28;19925;-49
2022/02/13 17:03:58;;;;;;;;;;;16.20;32.70;;;;;;8331706;28;19970;-50
2022/02/13 17:07:59;;;;;;;;;;;16.20;32.70;;;;;;8332729;28;20274;-51
2022/02/13 17:12:02;;;;;;;;;;;16.20;32.60;;;;;;8329634;28;20037;-54
2022/02/13 17:16:02;;;;;;;;;;;16.20;32.70;;;;;;8332316;28;19956;-50
2022/02/13 17:20:03;;;;;;;;;;;16.20;32.70;;;;;;8331621;28;20333;-55
2022/02/13 17:24:04;;;;;;;;;;;16.20;32.70;;;;;;8332130;28;19940;-52
2022/02/13 17:28:04;;;;;;;;;;;16.20;32.70;;;;;;8332416;28;19914;-53
2022/02/13 17:32:05;;;;;;;;;;;16.20;32.70;;;;;;8331363;28;20339;-54
2022/02/13 17:36:06;;;;;;;;;;;16.20;32.70;;;;;;8331764;28;19918;-53
2022/02/13 17:40:06;;;;;;;;;;;16.20;32.70;;;;;;8331571;28;20444;-53
2022/02/13 17:44:07;;;;;;;;;;;16.20;32.70;;;;;;8331017;28;19936;-53
2022/02/13 17:48:07;;;;;;;;;;;16.20;32.80;;;;;;8331553;28;20135;-51
2022/02/13 17:52:08;;;;;;;;;;;16.20;32.80;;;;;;8331593;28;19921;-54
2022/02/13 17:56:08;;;;;;;;;;;16.20;32.80;;;;;;8330588;28;19948;-54
2022/02/13 18:00:10;;;;;;;;;;;16.20;32.80;;;;;;8330739;28;20370;-54
2022/02/13 18:04:11;;;;;;;;;;;16.20;32.80;;;;;;8330996;28;19968;-52
2022/02/13 18:08:11;;;;;;;;;;;16.20;32.80;;;;;;8330636;28;20258;-52
2022/02/13 18:12:12;;;;;;;;;;;16.20;32.80;;;;;;8331128;28;19948;-50
2022/02/13 18:16:12;;;;;;;;;;;16.20;32.80;;;;;;8330912;28;19917;-51
2022/02/13 18:20:13;;;;;;;;;;;16.20;32.80;;;;;;8330045;28;19933;-52
2022/02/13 18:24:14;;;;;;;;;;;16.20;32.80;;;;;;8330503;28;19920;-52
2022/02/13 18:28:14;;;;;;;;;;;16.20;32.80;;;;;;8330352;28;19914;-53
2022/02/13 18:32:15;;;;;;;;;;;16.20;32.80;;;;;;8330273;28;19979;-55
2022/02/13 18:36:15;;;;;;;;;;;16.20;32.80;;;;;;8330480;28;19944;-52
2022/02/13 18:40:16;;;;;;;;;;;16.20;32.80;;;;;;8329472;28;19965;-54
2022/02/13 18:44:18;;;;;;;;;;;16.10;32.80;;;;;;8328156;28;20282;-50
2022/02/13 18:48:18;;;;;;;;;;;16.10;32.80;;;;;;8330525;28;19917;-52
2022/02/13 18:52:19;;;;;;;;;;;16.20;32.80;;;;;;8329370;28;20286;-54
2022/02/13 18:56:20;;;;;;;;;;;16.10;32.80;;;;;;8329845;28;19921;-51
2022/02/13 19:00:20;;;;;;;;;;;16.20;32.80;;;;;;8329918;28;19929;-53
2022/02/13 19:04:21;;;;;;;;;;;16.10;32.80;;;;;;8329410;28;19913;-50
2022/02/13 19:08:22;;;;;;;;;;;16.10;32.80;;;;;;8330315;28;20000;-51
2022/02/13 19:12:22;;;;;;;;;;;16.10;32.70;;;;;;8336335;28;20346;-52
2022/02/13 19:16:23;;;;;;;;;;;16.10;32.80;;;;;;8335701;28;19952;-53
2022/02/13 19:20:26;;;;;;;;;;;16.10;32.80;;;;;;8335916;28;19948;-52
2022/02/13 19:24:28;;;;;;;;;;;16.10;32.80;;;;;;8336184;28;20370;-53
2022/02/13 19:28:29;;;;;;;;;;;16.10;32.80;;;;;;8336046;28;19917;-49
2022/02/13 19:32:29;;;;;;;;;;;16.10;32.80;;;;;;8337817;28;19949;-48
2022/02/13 19:36:30;;;;;;;;;;;16.10;32.80;;;;;;8337329;28;19924;-50
2022/02/13 19:40:32;;;;;;;;;;;16.10;32.80;;;;;;8336091;28;19921;-49
2022/02/13 19:44:34;;;;;;;;;;;16.10;32.80;;;;;;8336874;28;19948;-53
2022/02/13 19:48:35;;;;;;;;;;;16.10;32.80;;;;;;8335693;28;19917;-53
2022/02/13 19:52:35;;;;;;;;;;;16.10;32.80;;;;;;8334556;28;19928;-54
2022/02/13 19:56:36;;;;;;;;;;;16.10;32.70;;;;;;8334840;28;20324;-51
2022/02/13 20:00:37;;;;;;;;;;;16.10;32.70;;;;;;8334790;28;20342;-53
2022/02/13 20:04:38;;;;;;;;;;;16.10;32.70;;;;;;8333253;28;19986;-53
2022/02/13 20:08:38;;;;;;;;;;;16.10;32.70;;;;;;8334826;28;19921;-51
2022/02/13 20:12:38;;;;;;;;;;;16.10;32.80;;;;;;8334615;28;19929;-52
2022/02/13 20:16:39;;;;;;;;;;;16.10;32.80;;;;;;8333967;28;19917;-53
2022/02/13 20:20:39;;;;;;;;;;;16.10;32.70;;;;;;8333888;28;19914;-51
2022/02/13 20:24:42;;;;;;;;;;;16.10;32.70;;;;;;8334465;28;19917;-53
2022/02/13 20:28:43;;;;;;;;;;;16.10;32.70;;;;;;8333568;28;19956;-51
2022/02/13 20:32:44;;;;;;;;;;;16.10;32.70;;;;;;8333912;28;20324;-52
2022/02/13 20:36:44;;;;;;;;;;;16.10;32.70;;;;;;8333754;28;19913;-52
2022/02/13 20:40:45;;;;;;;;;;;16.10;32.70;;;;;;8333419;28;20008;-51
2022/02/13 20:44:45;;;;;;;;;;;16.10;32.70;;;;;;8333496;28;19913;-52
2022/02/13 20:48:46;;;;;;;;;;;16.10;32.70;;;;;;8333575;28;19944;-53
2022/02/13 20:52:46;;;;;;;;;;;16.10;32.70;;;;;;8333024;28;19932;-53
2022/02/13 20:56:47;;;;;;;;;;;16.10;32.70;;;;;;8333008;28;20297;-52
2022/02/13 21:00:47;;;;;;;;;;;16.10;32.80;;;;;;8332990;28;19913;-52
2022/02/13 21:04:48;;;;;;;;;;;16.10;32.70;;;;;;8332764;28;20380;-49
2022/02/13 21:08:48;;;;;;;;;;;16.10;32.70;;;;;;8332717;28;20462;-52
2022/02/13 21:12:49;;;;;;;;;;;16.10;32.70;;;;;;8333143;28;19921;-53
2022/02/13 21:16:49;;;;;;;;;;;16.10;32.70;;;;;;8330732;28;19929;-51
2022/02/13 21:20:50;;;;;;;;;;;16.10;32.60;;;;;;8332212;28;19920;-53
2022/02/13 21:24:51;;;;;;;;;;;16.10;32.60;;;;;;8332383;28;20412;-53
2022/02/13 21:28:51;;;;;;;;;;;16.00;32.70;;;;;;8331544;28;19944;-51
2022/02/13 21:32:52;;;;;;;;;;;16.00;32.70;;;;;;8331667;28;19960;-51
2022/02/13 21:36:52;;;;;;;;;;;16.00;32.80;;;;;;8331911;28;19928;-49
2022/02/13 21:40:53;;;;;;;;;;;16.00;32.60;;;;;;8331350;28;20392;-54
2022/02/13 21:44:53;;;;;;;;;;;16.00;32.70;;;;;;8331937;28;19914;-51
2022/02/13 21:48:54;;;;;;;;;;;16.00;32.60;;;;;;8331637;28;19923;-50
2022/02/13 21:52:54;;;;;;;;;;;16.00;32.60;;;;;;8331031;28;19983;-51
2022/02/13 21:56:55;;;;;;;;;;;16.00;32.70;;;;;;8331236;28;19928;-52
2022/02/13 22:00:57;;;;;;;;;;;16.00;32.70;;;;;;8331132;28;19917;-50
2022/02/13 22:04:58;;;;;;;;;;;16.00;32.70;;;;;;8331031;28;19917;-53
2022/02/13 22:08:58;;;;;;;;;;;16.00;32.70;;;;;;8330990;28;19930;-54
2022/02/13 22:12:59;;;;;;;;;;;16.00;32.60;;;;;;8330865;28;19924;-54
2022/02/13 22:17:00;;;;;;;;;;;16.00;32.60;;;;;;8330200;28;19925;-54
2022/02/13 22:21:00;;;;;;;;;;;16.00;32.70;;;;;;8330914;28;19913;-53
2022/02/13 22:25:01;;;;;;;;;;;16.00;32.70;;;;;;8330746;28;19925;-53
2022/02/13 22:29:03;;;;;;;;;;;16.00;32.60;;;;;;8329948;28;20012;-53
2022/02/13 22:33:04;;;;;;;;;;;15.90;32.60;;;;;;8330382;28;19999;-56
2022/02/13 22:37:04;;;;;;;;;;;15.90;32.60;;;;;;8330889;28;19925;-54
2022/02/13 22:41:05;;;;;;;;;;;15.90;32.60;;;;;;8329615;28;19914;-53
2022/02/13 22:45:06;;;;;;;;;;;15.90;32.60;;;;;;8330346;28;20289;-53
2022/02/13 22:49:06;;;;;;;;;;;15.90;32.60;;;;;;8330172;28;19956;-52
2022/02/13 22:53:06;;;;;;;;;;;15.90;32.60;;;;;;8329563;28;19922;-50
2022/02/13 22:57:07;;;;;;;;;;;15.90;32.70;;;;;;8329824;28;19969;-52
2022/02/13 23:01:08;;;;;;;;;;;15.90;32.60;;;;;;8323849;28;19918;-50
2022/02/13 23:05:10;;;;;;;;;;;15.90;32.60;;;;;;8310551;28;19921;-53
2022/02/13 23:13:29;;;;;;;;;;;15.90;32.60;;;;;;8329305;28;20426;-53
2022/02/13 23:17:30;;;;;;;;;;;15.90;32.60;;;;;;8329552;28;19926;-50
2022/02/13 23:21:30;;;;;;;;;;;15.90;32.60;;;;;;8329750;28;20296;-50
2022/02/13 23:25:31;;;;;;;;;;;15.90;32.60;;;;;;8329228;28;19917;-53
2022/02/13 23:29:32;;;;;;;;;;;15.90;32.60;;;;;;8329497;28;19917;-53